createdAt,value
2023-09-27T00:02:01.021Z,14.48
2023-09-27T00:04:04.381Z,16.88
2023-09-27T00:06:07.397Z,16.08
2023-09-27T00:08:12.248Z,18.90
2023-09-27T00:10:16.119Z,13.63
2023-09-27T00:12:19.384Z,14.85
2023-09-27T00:14:22.363Z,12.75
2023-09-27T00:16:25.359Z,10.88
2023-09-27T00:18:28.361Z,17.70
2023-09-27T00:20:31.367Z,16.60
2023-09-27T00:22:34.622Z,15.77
2023-09-27T00:24:40.078Z,15.13
2023-09-27T00:26:42.911Z,11.55
2023-09-27T00:28:45.809Z,10.32
2023-09-27T00:30:51.303Z,12.07
2023-09-27T00:32:54.820Z,11.73
2023-09-27T00:34:56.889Z,10.10
2023-09-27T00:36:59.957Z,10.25
2023-09-27T00:39:02.848Z,9.13
2023-09-27T00:41:07.289Z,11.98
2023-09-27T00:43:10.190Z,11.52
2023-09-27T00:45:13.113Z,12.50
2023-09-27T00:47:16.598Z,11.32
2023-09-27T00:49:19.677Z,11.50
2023-09-27T00:51:22.596Z,10.10
2023-09-27T00:53:29.347Z,8.43
2023-09-27T00:55:32.335Z,8.90
2023-09-27T00:57:38.014Z,9.10
2023-09-27T00:59:40.927Z,11.75
2023-09-27T01:01:44.377Z,11.25
2023-09-27T01:03:48.681Z,11.57
2023-09-27T01:05:51.853Z,14.07
2023-09-27T01:07:54.948Z,12.52
2023-09-27T01:09:57.818Z,15.95
2023-09-27T01:12:02.265Z,12.52
2023-09-27T01:14:07.149Z,10.18
2023-09-27T01:16:09.177Z,13.50
2023-09-27T01:18:12.028Z,13.15
2023-09-27T01:20:14.930Z,10.32
2023-09-27T01:22:17.808Z,12.25
2023-09-27T01:24:22.129Z,14.68
2023-09-27T01:26:25.202Z,11.57
2023-09-27T01:29:18.254Z,12.75
2023-09-27T01:31:21.749Z,13.07
2023-09-27T01:33:27.250Z,13.07
2023-09-27T01:35:31.276Z,14.30
2023-09-27T01:37:34.386Z,13.45
2023-09-27T01:39:38.667Z,13.18
2023-09-27T01:41:41.948Z,15.50
2023-09-27T01:43:44.914Z,14.93
2023-09-27T01:45:47.833Z,13.77
2023-09-27T01:47:50.800Z,14.27
2023-09-27T01:49:53.806Z,14.82
2023-09-27T01:51:56.669Z,11.25
2023-09-27T01:53:59.547Z,13.40
2023-09-27T01:56:05.270Z,15.05
2023-09-27T01:58:08.114Z,17.73
2023-09-27T02:00:12.241Z,15.05
2023-09-27T02:02:17.992Z,15.70
2023-09-27T02:04:20.931Z,13.15
2023-09-27T02:06:25.327Z,16.13
2023-09-27T02:08:28.147Z,15.73
2023-09-27T02:10:31.141Z,13.10
2023-09-27T02:12:37.642Z,15.65
2023-09-27T02:14:40.664Z,18.98
2023-09-27T02:16:45.087Z,17.60
2023-09-27T02:18:48.109Z,10.90
2023-09-27T02:20:51.352Z,10.88
2023-09-27T02:22:56.434Z,12.10
2023-09-27T02:24:58.739Z,15.73
2023-09-27T02:27:01.989Z,13.82
2023-09-27T02:29:09.410Z,13.48
2023-09-27T02:31:13.797Z,15.18
2023-09-27T02:33:17.557Z,16.02
2023-09-27T02:35:22.153Z,16.38
2023-09-27T02:39:27.063Z,14.98
2023-09-27T02:41:30.651Z,18.23
2023-09-27T02:43:33.577Z,13.73
2023-09-27T02:45:37.256Z,15.15
2023-09-27T02:47:44.670Z,15.48
2023-09-27T02:49:47.971Z,15.93
2023-09-27T02:51:53.308Z,15.40
2023-09-27T02:53:56.158Z,12.07
2023-09-27T02:55:59.619Z,16.63
2023-09-27T02:58:02.515Z,22.95
2023-09-27T03:00:07.586Z,16.63
2023-09-27T03:02:12.173Z,21.60
2023-09-27T03:04:16.380Z,24.48
2023-09-27T03:06:20.167Z,21.73
2023-09-27T03:08:23.836Z,15.05
2023-09-27T03:10:25.931Z,19.40
2023-09-27T03:12:29.232Z,15.52
2023-09-27T03:14:32.221Z,19.90
2023-09-27T03:16:35.709Z,14.10
2023-09-27T03:18:40.689Z,18.73
2023-09-27T03:20:43.633Z,12.70
2023-09-27T03:22:47.382Z,16.98
2023-09-27T03:24:52.159Z,20.58
2023-09-27T03:26:55.577Z,16.95
2023-09-27T03:28:58.790Z,16.10
2023-09-27T03:31:02.205Z,14.55
2023-09-27T03:33:07.087Z,17.98
2023-09-27T03:35:11.724Z,16.55
2023-09-27T03:39:23.445Z,11.98
2023-09-27T03:41:26.488Z,14.20
2023-09-27T03:43:29.762Z,14.07
2023-09-27T03:45:36.644Z,15.73
2023-09-27T03:47:41.032Z,14.05
2023-09-27T03:49:44.007Z,18.88
2023-09-27T03:51:48.226Z,12.20
2023-09-27T03:53:51.233Z,14.82
2023-09-27T03:55:55.259Z,14.13
2023-09-27T03:57:58.542Z,13.65
2023-09-27T04:00:01.576Z,17.13
2023-09-27T04:02:05.139Z,14.57
2023-09-27T04:04:08.705Z,13.95
2023-09-27T04:06:11.549Z,13.27
2023-09-27T04:08:15.833Z,12.00
2023-09-27T04:10:20.627Z,13.32
2023-09-27T04:14:26.233Z,14.00
2023-09-27T04:16:31.814Z,15.85
2023-09-27T04:18:34.933Z,13.85
2023-09-27T04:20:38.014Z,16.48
2023-09-27T04:22:39.993Z,14.10
2023-09-27T04:24:44.190Z,16.15
2023-09-27T04:26:47.287Z,15.65
2023-09-27T04:28:50.099Z,16.42
2023-09-27T04:30:53.063Z,18.75
2023-09-27T04:32:56.075Z,17.30
2023-09-27T04:34:59.790Z,17.40
2023-09-27T04:37:03.268Z,15.30
2023-09-27T04:39:12.084Z,15.57
2023-09-27T04:41:17.833Z,17.58
2023-09-27T04:43:21.320Z,19.80
2023-09-27T04:45:24.500Z,18.63
2023-09-27T04:47:26.543Z,21.88
2023-09-27T04:49:33.669Z,19.85
2023-09-27T04:51:36.612Z,16.30
2023-09-27T04:53:39.970Z,21.35
2023-09-27T04:55:42.846Z,20.02
2023-09-27T04:57:47.019Z,17.90
2023-09-27T04:59:50.115Z,23.00
2023-09-27T05:01:52.981Z,19.20
2023-09-27T05:03:56.009Z,21.30
2023-09-27T05:05:58.997Z,14.95
2023-09-27T05:08:01.928Z,15.77
2023-09-27T05:10:05.240Z,17.98
2023-09-27T05:12:08.520Z,15.55
2023-09-27T05:14:12.709Z,18.58
2023-09-27T05:16:15.736Z,19.05
2023-09-27T05:18:18.656Z,13.93
2023-09-27T05:20:21.654Z,17.77
2023-09-27T05:22:25.253Z,22.95
2023-09-27T05:24:28.138Z,18.85
2023-09-27T05:26:31.179Z,16.88
2023-09-27T05:28:34.790Z,19.73
2023-09-27T05:30:39.008Z,17.30
2023-09-27T05:32:43.663Z,19.48
2023-09-27T05:34:46.590Z,21.27
2023-09-27T05:36:49.498Z,16.85
2023-09-27T05:38:53.100Z,22.13
2023-09-27T05:40:56.098Z,18.87
2023-09-27T05:43:00.003Z,18.02
2023-09-27T05:45:05.386Z,20.80
2023-09-27T05:47:09.907Z,17.55
2023-09-27T05:49:15.957Z,24.67
2023-09-27T05:51:18.898Z,18.08
2023-09-27T05:53:22.078Z,20.15
2023-09-27T05:55:24.951Z,18.25
2023-09-27T05:57:26.831Z,16.63
2023-09-27T05:59:29.681Z,17.40
2023-09-27T06:01:33.181Z,17.33
2023-09-27T06:03:38.734Z,24.48
2023-09-27T06:05:41.196Z,18.55
2023-09-27T06:07:44.291Z,14.48
2023-09-27T06:09:47.177Z,18.75
2023-09-27T06:11:51.394Z,22.15
2023-09-27T06:13:53.336Z,17.73
2023-09-27T06:15:56.530Z,19.20
2023-09-27T06:17:59.510Z,17.02
2023-09-27T06:20:12.840Z,23.50
2023-09-27T06:22:16.759Z,25.15
2023-09-27T06:24:19.600Z,24.70
2023-09-27T06:26:22.416Z,23.13
2023-09-27T06:28:25.470Z,18.88
2023-09-27T06:30:28.787Z,20.20
2023-09-27T06:32:30.771Z,24.13
2023-09-27T06:34:33.813Z,27.15
2023-09-27T06:36:38.809Z,22.25
2023-09-27T06:38:44.810Z,21.83
2023-09-27T06:40:49.688Z,25.85
2023-09-27T06:42:52.581Z,24.00
2023-09-27T06:44:55.959Z,29.88
2023-09-27T06:46:58.823Z,21.80
2023-09-27T06:49:01.729Z,24.45
2023-09-27T06:51:04.822Z,22.00
2023-09-27T06:53:22.494Z,26.40
2023-09-27T06:55:27.403Z,22.20
2023-09-27T06:57:30.286Z,19.75
2023-09-27T06:59:33.655Z,21.90
2023-09-27T07:01:36.662Z,23.55
2023-09-27T07:03:39.636Z,18.65
2023-09-27T07:05:42.252Z,23.23
2023-09-27T07:07:45.523Z,20.55
2023-09-27T07:09:49.778Z,34.67
2023-09-27T07:11:52.659Z,32.05
2023-09-27T07:13:56.994Z,32.97
2023-09-27T07:16:00.386Z,39.75
2023-09-27T07:18:05.049Z,26.38
2023-09-27T07:20:24.424Z,29.77
2023-09-27T07:22:27.371Z,28.88
2023-09-27T07:24:32.148Z,27.50
2023-09-27T07:26:36.470Z,22.70
2023-09-27T07:28:39.273Z,18.50
2023-09-27T07:30:42.295Z,16.83
2023-09-27T07:32:46.602Z,20.63
2023-09-27T07:34:52.639Z,18.17
2023-09-27T07:39:03.071Z,17.70
2023-09-27T07:41:06.206Z,14.48
2023-09-27T07:43:10.453Z,15.27
2023-09-27T07:45:22.243Z,14.88
2023-09-27T07:47:25.259Z,14.93
2023-09-27T07:49:28.358Z,15.25
2023-09-27T07:51:31.277Z,14.07
2023-09-27T07:53:34.229Z,15.40
2023-09-27T07:55:44.489Z,15.65
2023-09-27T07:57:47.616Z,11.75
2023-09-27T07:59:51.893Z,12.52
2023-09-27T08:01:55.217Z,12.85
2023-09-27T08:04:09.099Z,12.45
2023-09-27T08:06:14.609Z,11.00
2023-09-27T08:08:17.802Z,12.07
2023-09-27T08:10:22.350Z,13.38
2023-09-27T08:12:28.936Z,15.05
2023-09-27T08:14:31.744Z,14.30
2023-09-27T08:16:37.141Z,14.40
2023-09-27T08:18:41.425Z,13.38
2023-09-27T08:20:44.474Z,14.65
2023-09-27T08:22:50.152Z,14.90
2023-09-27T08:24:53.303Z,12.45
2023-09-27T08:26:56.243Z,13.45
2023-09-27T08:28:59.108Z,13.75
2023-09-27T08:31:02.027Z,12.45
2023-09-27T08:33:05.730Z,15.07
2023-09-27T08:35:09.292Z,15.68
2023-09-27T08:37:12.617Z,11.23
2023-09-27T08:39:15.974Z,13.65
2023-09-27T08:41:19.830Z,14.90
2023-09-27T08:43:24.024Z,13.43
2023-09-27T08:45:28.135Z,14.10
2023-09-27T08:47:32.407Z,13.13
2023-09-27T08:49:36.818Z,10.52
2023-09-27T08:51:43.447Z,11.20
2023-09-27T08:53:46.326Z,12.98
2023-09-27T08:55:53.971Z,13.88
2023-09-27T08:57:59.140Z,10.02
2023-09-27T09:00:01.029Z,9.88
2023-09-27T09:02:05.720Z,12.52
2023-09-27T09:06:25.575Z,11.38
2023-09-27T09:08:42.818Z,11.18
2023-09-27T09:10:46.910Z,9.52
2023-09-27T09:12:50.509Z,12.95
2023-09-27T09:14:56.032Z,11.52
2023-09-27T09:16:59.063Z,10.13
2023-09-27T09:19:32.829Z,8.63
2023-09-27T09:21:45.149Z,8.70
2023-09-27T09:23:50.552Z,11.75
2023-09-27T09:25:54.476Z,15.68
2023-09-27T09:28:05.045Z,8.73
2023-09-27T09:30:12.659Z,11.07
2023-09-27T09:32:16.924Z,13.20
2023-09-27T09:34:19.842Z,8.73
2023-09-27T09:36:29.001Z,10.68
2023-09-27T09:38:35.364Z,8.73
2023-09-27T09:40:54.404Z,9.70
2023-09-27T09:42:59.667Z,10.88
2023-09-27T09:45:06.925Z,10.57
2023-09-27T09:47:11.300Z,8.95
2023-09-27T09:49:16.627Z,9.25
2023-09-27T09:51:25.280Z,9.85
2023-09-27T09:53:30.130Z,10.52
2023-09-27T09:56:09.161Z,11.38
2023-09-27T09:58:07.861Z,8.73
2023-09-27T10:00:17.383Z,8.55
2023-09-27T10:02:22.312Z,7.88
2023-09-27T10:04:27.445Z,6.40
2023-09-27T10:06:47.372Z,8.55
2023-09-27T10:08:52.873Z,9.15
2023-09-27T10:10:57.261Z,8.57
2023-09-27T10:13:01.017Z,7.95
2023-09-27T10:15:04.862Z,6.63
2023-09-27T10:17:21.589Z,8.93
2023-09-27T10:19:29.366Z,9.10
2023-09-27T10:21:32.973Z,8.82
2023-09-27T10:23:58.982Z,8.60
2023-09-27T10:26:21.471Z,6.90
2023-09-27T10:28:24.374Z,7.40
2023-09-27T10:30:27.379Z,7.22
2023-09-27T10:32:30.391Z,7.60
2023-09-27T10:34:42.268Z,8.57
2023-09-27T10:36:55.246Z,6.15
2023-09-27T10:39:07.539Z,6.20
2023-09-27T10:41:11.453Z,6.55
2023-09-27T10:43:41.726Z,6.80
2023-09-27T10:45:44.606Z,8.70
2023-09-27T10:47:50.776Z,6.03
2023-09-27T10:49:55.511Z,10.50
2023-09-27T10:52:06.519Z,5.78
2023-09-27T10:54:10.398Z,6.38
2023-09-27T10:56:13.577Z,6.03
2023-09-27T10:58:16.934Z,9.52
2023-09-27T11:00:22.543Z,7.23
2023-09-27T11:02:29.997Z,8.98
2023-09-27T11:04:34.074Z,8.10
2023-09-27T11:06:37.027Z,5.93
2023-09-27T11:08:41.347Z,7.13
2023-09-27T11:12:47.102Z,8.48
2023-09-27T11:14:50.663Z,6.03
2023-09-27T11:16:55.027Z,8.93
2023-09-27T11:18:58.482Z,9.68
2023-09-27T11:21:09.769Z,7.37
2023-09-27T11:23:12.632Z,13.18
2023-09-27T11:25:28.702Z,10.55
2023-09-27T11:27:31.580Z,5.80
2023-09-27T11:29:34.686Z,5.43
2023-09-27T11:31:39.613Z,6.53
2023-09-27T11:33:44.098Z,9.82
2023-09-27T11:35:51.377Z,8.88
2023-09-27T11:38:10.490Z,6.25
2023-09-27T11:40:12.638Z,8.15
2023-09-27T11:42:15.846Z,7.05
2023-09-27T11:44:18.748Z,7.78
2023-09-27T11:46:28.706Z,6.78
2023-09-27T11:48:34.532Z,5.95
2023-09-27T11:50:38.852Z,8.75
2023-09-27T11:54:46.455Z,7.25
2023-09-27T11:56:49.561Z,10.02
2023-09-27T11:58:53.118Z,6.28
2023-09-27T12:00:56.176Z,8.07
2023-09-27T12:02:59.898Z,7.15
2023-09-27T12:05:05.905Z,9.20
2023-09-27T12:07:11.393Z,7.70
2023-09-27T12:09:15.647Z,7.72
2023-09-27T12:11:18.515Z,7.15
2023-09-27T12:13:21.353Z,6.45
2023-09-27T12:15:24.325Z,5.75
2023-09-27T12:17:27.291Z,5.63
2023-09-27T12:19:29.853Z,8.68
2023-09-27T12:21:36.072Z,7.47
2023-09-27T12:23:39.398Z,7.93
2023-09-27T12:25:43.180Z,7.15
2023-09-27T12:27:46.068Z,6.80
2023-09-27T12:29:49.699Z,7.18
2023-09-27T12:31:52.619Z,6.50
2023-09-27T12:33:55.796Z,8.23
2023-09-27T12:35:58.795Z,8.35
2023-09-27T12:38:05.132Z,12.02
2023-09-27T12:40:11.062Z,5.13
2023-09-27T12:42:15.625Z,9.27
2023-09-27T12:44:22.635Z,5.22
2023-09-27T12:46:26.291Z,6.63
2023-09-27T12:48:29.640Z,4.93
2023-09-27T12:50:31.880Z,5.13
2023-09-27T12:52:35.540Z,10.80
2023-09-27T12:54:38.522Z,6.32
2023-09-27T12:56:43.953Z,5.95
2023-09-27T12:58:47.210Z,9.18
2023-09-27T13:00:50.115Z,5.75
2023-09-27T13:03:01.007Z,5.60
2023-09-27T13:05:03.873Z,6.10
2023-09-27T13:07:06.711Z,7.15
2023-09-27T13:09:09.839Z,6.88
2023-09-27T13:11:12.784Z,6.10
2023-09-27T13:13:17.134Z,5.03
2023-09-27T13:17:23.384Z,6.10
2023-09-27T13:19:26.354Z,4.28
2023-09-27T13:21:29.266Z,6.20
2023-09-27T13:23:32.590Z,5.18
2023-09-27T13:25:35.520Z,6.13
2023-09-27T13:27:38.467Z,5.18
2023-09-27T13:29:43.923Z,6.07
2023-09-27T13:31:47.726Z,4.70
2023-09-27T13:34:03.213Z,3.50
2023-09-27T13:36:12.669Z,5.53
2023-09-27T13:38:15.504Z,6.28
2023-09-27T13:40:18.531Z,4.18
2023-09-27T13:42:21.457Z,5.85
2023-09-27T13:44:24.742Z,5.97
2023-09-27T13:46:29.403Z,6.65
2023-09-27T13:48:32.327Z,4.85
2023-09-27T13:50:36.994Z,3.53
2023-09-27T13:52:41.350Z,5.95
2023-09-27T13:54:44.169Z,11.13
2023-09-27T13:56:47.228Z,4.50
2023-09-27T13:58:50.048Z,5.63
2023-09-27T14:00:53.595Z,3.67
2023-09-27T14:02:58.056Z,5.53
2023-09-27T14:05:01.203Z,5.07
2023-09-27T14:07:04.711Z,4.97
2023-09-27T14:09:07.882Z,5.38
2023-09-27T14:11:14.473Z,7.38
2023-09-27T14:13:17.413Z,3.33
2023-09-27T14:15:20.301Z,3.00
2023-09-27T14:17:23.232Z,3.35
2023-09-27T14:19:27.463Z,2.33
2023-09-27T14:21:30.353Z,4.90
2023-09-27T14:23:33.372Z,1.77
2023-09-27T14:25:38.009Z,2.10
2023-09-27T14:27:41.690Z,3.25
2023-09-27T14:29:44.750Z,3.58
2023-09-27T14:31:47.782Z,3.45
2023-09-27T14:33:49.710Z,2.30
2023-09-27T14:35:54.082Z,2.17
2023-09-27T14:40:00.424Z,1.55
2023-09-27T14:42:02.330Z,2.72
2023-09-27T14:44:05.464Z,2.95
2023-09-27T14:46:12.345Z,3.70
2023-09-27T14:48:15.363Z,2.03
2023-09-27T14:50:18.334Z,3.17
2023-09-27T14:52:22.643Z,3.22
2023-09-27T14:56:28.867Z,2.97
2023-09-27T14:58:32.867Z,2.60
2023-09-27T15:00:35.709Z,4.00
2023-09-27T15:02:38.569Z,2.58
2023-09-27T15:04:41.646Z,3.50
2023-09-27T15:06:44.666Z,2.15
2023-09-27T15:08:51.695Z,5.30
2023-09-27T15:10:54.824Z,3.78
2023-09-27T15:12:57.700Z,1.80
2023-09-27T15:15:01.122Z,2.78
2023-09-27T15:17:04.235Z,1.70
2023-09-27T15:19:07.272Z,3.17
2023-09-27T15:21:11.263Z,6.23
2023-09-27T15:23:14.160Z,2.95
2023-09-27T15:25:18.777Z,2.70
2023-09-27T15:27:21.731Z,1.70
2023-09-27T15:29:24.655Z,2.22
2023-09-27T15:31:27.719Z,1.13
2023-09-27T15:33:30.738Z,3.42
2023-09-27T15:35:33.592Z,2.55
2023-09-27T15:37:36.457Z,2.38
2023-09-27T15:39:39.304Z,2.17
2023-09-27T15:41:43.455Z,1.63
2023-09-27T15:43:47.111Z,2.03
2023-09-27T15:45:59.475Z,1.88
2023-09-27T15:48:03.525Z,2.08
2023-09-27T15:50:09.916Z,1.98
2023-09-27T15:52:13.554Z,2.17
2023-09-27T15:54:19.254Z,3.15
2023-09-27T15:56:22.478Z,2.83
2023-09-27T15:58:26.797Z,2.53
2023-09-27T16:02:33.385Z,1.55
2023-09-27T16:04:42.387Z,1.90
2023-09-27T16:06:52.847Z,1.65
2023-09-27T16:08:55.765Z,2.13
2023-09-27T16:10:58.921Z,1.83
2023-09-27T16:13:00.770Z,1.98
2023-09-27T16:15:07.704Z,1.95
2023-09-27T16:17:10.712Z,3.03
2023-09-27T16:19:13.576Z,1.77
2023-09-27T16:21:16.527Z,2.65
2023-09-27T16:23:19.400Z,1.98
2023-09-27T16:25:22.245Z,2.10
2023-09-27T16:27:25.097Z,1.40
2023-09-27T16:29:28.040Z,2.15
2023-09-27T16:31:34.139Z,2.93
2023-09-27T16:33:38.558Z,1.60
2023-09-27T16:35:41.195Z,1.42
2023-09-27T16:37:44.632Z,1.88
2023-09-27T16:39:49.210Z,6.43
2023-09-27T16:41:52.403Z,1.63
2023-09-27T16:43:55.451Z,1.85
2023-09-27T16:45:58.745Z,1.87
2023-09-27T16:48:03.057Z,1.80
2023-09-27T16:50:07.102Z,1.50
2023-09-27T16:52:10.000Z,1.35
2023-09-27T16:54:12.916Z,3.88
2023-09-27T16:56:15.734Z,2.50
2023-09-27T16:58:18.594Z,3.25
2023-09-27T17:00:21.469Z,2.15
2023-09-27T17:02:23.548Z,1.10
2023-09-27T17:04:28.023Z,2.13
2023-09-27T17:06:30.946Z,1.80
2023-09-27T17:08:34.010Z,3.17
2023-09-27T17:10:37.126Z,2.50
2023-09-27T17:12:40.061Z,2.70
2023-09-27T17:14:42.948Z,4.05
2023-09-27T17:16:47.456Z,3.53
2023-09-27T17:18:50.975Z,2.88
2023-09-27T17:20:55.187Z,3.22
2023-09-27T17:22:58.739Z,3.30
2023-09-27T17:25:01.710Z,3.25
2023-09-27T17:27:04.662Z,3.58
2023-09-27T17:29:06.607Z,2.50
2023-09-27T17:31:09.759Z,4.57
2023-09-27T17:33:13.057Z,2.75
2023-09-27T17:35:16.903Z,2.58
2023-09-27T17:37:21.186Z,3.72
2023-09-27T17:39:24.103Z,3.28
2023-09-27T17:41:27.131Z,2.50
2023-09-27T17:43:29.992Z,2.80
2023-09-27T17:45:32.906Z,3.35
2023-09-27T17:47:34.992Z,6.97
2023-09-27T17:49:38.094Z,6.03
2023-09-27T17:51:42.109Z,2.80
2023-09-27T17:53:47.388Z,1.98
2023-09-27T17:55:50.396Z,5.93
2023-09-27T17:57:53.296Z,4.57
2023-09-27T17:59:56.117Z,4.15
2023-09-27T18:01:59.019Z,3.97
2023-09-27T18:04:01.956Z,2.25
2023-09-27T18:06:07.190Z,2.47
2023-09-27T18:08:10.192Z,2.08
2023-09-27T18:10:14.677Z,2.50
2023-09-27T18:14:20.168Z,3.13
2023-09-27T18:16:23.337Z,1.75
2023-09-27T18:18:26.411Z,3.08
2023-09-27T18:20:29.323Z,3.42
2023-09-27T18:22:32.564Z,2.22
2023-09-27T18:24:35.510Z,3.65
2023-09-27T18:26:39.662Z,2.13
2023-09-27T18:28:43.285Z,2.97
2023-09-27T18:30:46.181Z,2.17
2023-09-27T18:32:49.128Z,2.20
2023-09-27T18:34:52.074Z,3.03
2023-09-27T18:36:54.906Z,2.92
2023-09-27T18:38:58.612Z,3.58
2023-09-27T18:41:01.528Z,3.20
2023-09-27T18:43:05.955Z,2.22
2023-09-27T18:45:10.215Z,4.65
2023-09-27T18:47:13.718Z,4.18
2023-09-27T18:49:17.531Z,5.00
2023-09-27T18:51:23.870Z,4.00
2023-09-27T18:53:26.740Z,5.45
2023-09-27T18:55:29.777Z,2.55
2023-09-27T18:57:32.671Z,5.93
2023-09-27T18:59:37.109Z,2.40
2023-09-27T19:03:43.364Z,7.10
2023-09-27T19:05:46.246Z,7.30
2023-09-27T19:07:49.665Z,4.85
2023-09-27T19:09:52.574Z,8.73
2023-09-27T19:11:55.441Z,6.20
2023-09-27T19:13:58.387Z,5.60
2023-09-27T19:16:02.596Z,4.28
2023-09-27T19:18:06.310Z,6.40
2023-09-27T19:20:09.937Z,4.35
2023-09-27T19:22:12.866Z,4.53
2023-09-27T19:24:15.739Z,6.25
2023-09-27T19:26:17.638Z,5.38
2023-09-27T19:28:20.939Z,6.03
2023-09-27T19:30:24.540Z,4.78
2023-09-27T19:32:29.356Z,8.70
2023-09-27T19:34:37.318Z,7.22
2023-09-27T19:36:43.381Z,7.38
2023-09-27T19:38:46.304Z,4.75
2023-09-27T19:40:49.355Z,5.57
2023-09-27T19:42:52.235Z,4.90
2023-09-27T19:44:55.118Z,7.57
2023-09-27T19:46:58.092Z,7.75
2023-09-27T19:49:02.792Z,8.82
2023-09-27T19:51:05.647Z,9.20
2023-09-27T19:53:08.617Z,9.13
2023-09-27T19:55:11.575Z,12.70
2023-09-27T19:57:14.399Z,11.98
2023-09-27T19:59:17.384Z,9.70
2023-09-27T20:01:28.105Z,8.52
2023-09-27T20:03:31.131Z,12.15
2023-09-27T20:05:35.432Z,9.35
2023-09-27T20:07:38.381Z,8.30
2023-09-27T20:09:41.334Z,8.80
2023-09-27T20:11:44.253Z,10.90
2023-09-27T20:13:46.330Z,13.40
2023-09-27T20:15:49.188Z,10.82
2023-09-27T20:17:52.090Z,9.07
2023-09-27T20:19:55.081Z,7.85
2023-09-27T20:21:59.332Z,15.15
2023-09-27T20:24:02.720Z,10.10
2023-09-27T20:26:06.383Z,7.90
2023-09-27T20:28:10.104Z,8.27
2023-09-27T20:30:13.823Z,6.07
2023-09-27T20:32:17.442Z,7.50
2023-09-27T20:34:20.343Z,7.50
2023-09-27T20:36:22.216Z,8.32
2023-09-27T20:38:26.489Z,7.63
2023-09-27T20:40:29.370Z,7.25
2023-09-27T20:42:34.096Z,8.80
2023-09-27T20:44:37.297Z,7.90
2023-09-27T20:46:40.336Z,5.88
2023-09-27T20:48:43.259Z,7.28
2023-09-27T20:50:46.494Z,10.32
2023-09-27T20:52:49.776Z,6.10
2023-09-27T20:54:54.028Z,9.88
2023-09-27T20:56:56.917Z,10.18
2023-09-27T20:58:59.902Z,6.85
2023-09-27T21:01:07.868Z,6.53
2023-09-27T21:03:10.791Z,6.18
2023-09-27T21:05:13.629Z,6.47
2023-09-27T21:07:16.476Z,5.75
2023-09-27T21:09:19.504Z,5.45
2023-09-27T21:11:25.604Z,5.97
2023-09-27T21:13:28.459Z,8.07
2023-09-27T21:15:31.349Z,5.80
2023-09-27T21:17:36.000Z,7.10
2023-09-27T21:19:38.942Z,6.57
2023-09-27T21:21:41.869Z,11.80
2023-09-27T21:23:43.773Z,8.57
2023-09-27T21:25:46.656Z,11.80
2023-09-27T21:27:50.879Z,9.13
2023-09-27T21:29:56.902Z,12.75
2023-09-27T21:31:59.840Z,10.32
2023-09-27T21:34:02.743Z,9.70
2023-09-27T21:36:06.594Z,10.15
2023-09-27T21:38:09.465Z,11.23
2023-09-27T21:40:13.971Z,10.82
2023-09-27T21:44:23.949Z,16.08
2023-09-27T21:46:26.973Z,9.30
2023-09-27T21:48:30.692Z,8.07
2023-09-27T21:50:33.536Z,7.75
2023-09-27T21:52:37.243Z,8.93
2023-09-27T21:54:40.139Z,11.45
2023-09-27T21:56:43.225Z,9.20
2023-09-27T21:58:45.928Z,9.15
2023-09-27T22:00:50.196Z,11.23
2023-09-27T22:02:53.125Z,9.02
2023-09-27T22:04:56.065Z,11.05
2023-09-27T22:06:58.994Z,9.10
2023-09-27T22:09:05.293Z,10.43
2023-09-27T22:11:08.362Z,11.82
2023-09-27T22:13:22.615Z,11.90
2023-09-27T22:15:26.073Z,16.67
2023-09-27T22:17:36.494Z,14.40
2023-09-27T22:19:40.563Z,11.90
2023-09-27T22:21:46.025Z,21.48
2023-09-27T22:23:48.904Z,18.77
2023-09-27T22:25:54.453Z,20.65
2023-09-27T22:27:58.542Z,15.35
2023-09-27T22:30:01.873Z,20.07
2023-09-27T22:32:05.745Z,14.98
2023-09-27T22:34:17.609Z,17.35
2023-09-27T22:36:20.479Z,16.50
2023-09-27T22:38:24.845Z,12.18
2023-09-27T22:40:27.728Z,17.15
2023-09-27T22:42:30.501Z,20.80
2023-09-27T22:44:34.013Z,12.20
2023-09-27T22:46:38.033Z,13.90
2023-09-27T22:48:40.928Z,16.05
2023-09-27T22:50:45.635Z,10.52
2023-09-27T22:52:49.279Z,14.25
2023-09-27T22:54:52.198Z,13.23
2023-09-27T22:56:55.132Z,12.15
2023-09-27T22:58:58.037Z,11.63
2023-09-27T23:01:21.104Z,6.95
2023-09-27T23:03:24.309Z,8.02
2023-09-27T23:05:33.685Z,10.90
2023-09-27T23:07:37.994Z,11.73
2023-09-27T23:09:41.777Z,7.70
2023-09-27T23:11:44.664Z,6.53
2023-09-27T23:13:58.611Z,10.02
2023-09-27T23:16:22.005Z,7.13
2023-09-27T23:18:28.556Z,9.32
2023-09-27T23:20:31.759Z,8.32
2023-09-27T23:22:55.101Z,7.47
2023-09-27T23:25:13.317Z,8.02
2023-09-27T23:27:16.753Z,7.65
2023-09-27T23:29:34.111Z,6.93
2023-09-27T23:31:37.044Z,8.90
2023-09-27T23:33:43.128Z,8.43
2023-09-27T23:35:46.944Z,9.23
2023-09-27T23:37:48.879Z,12.95
2023-09-27T23:39:51.754Z,8.05
2023-09-27T23:41:56.973Z,6.80
2023-09-27T23:44:02.013Z,7.80
2023-09-27T23:46:07.083Z,6.38
2023-09-27T23:48:12.633Z,6.15
2023-09-27T23:50:17.060Z,7.43
2023-09-27T23:52:24.387Z,6.78
2023-09-27T23:54:27.178Z,8.68
2023-09-27T23:56:31.792Z,7.72
2023-09-27T23:58:36.710Z,8.93
